Stations météo

réclame
Mon MeteoGroup
Carlsfeld, Allemagne (10574): Température de l'air & dewpoint: 16.10.2017 02:00:00 - 22.10.2017 02:00:00 (CEST)Carlsfeld, Allemagne (10574): Température de l'air 5cm & Température de l'air -5cm: 16.10.2017 02:00:00 - 22.10.2017 02:00:00 (CEST)Carlsfeld, Allemagne (10574): Température de l'air -20cm & Température de l'air -100cm: 16.10.2017 02:00:00 - 22.10.2017 02:00:00 (CEST)Carlsfeld, Allemagne (10574): Vitesse du vent & gusts: 16.10.2017 02:00:00 - 22.10.2017 02:00:00 (CEST)Carlsfeld, Allemagne (10574): Direction du vent: 16.10.2017 02:00:00 - 22.10.2017 02:00:00 (CEST)Carlsfeld, Allemagne (10574): visibility: 16.10.2017 02:00:00 - 22.10.2017 02:00:00 (CEST)Carlsfeld, Allemagne (10574): Ensoleillement: 16.10.2017 02:00:00 - 22.10.2017 02:00:00 (CEST)Carlsfeld, Allemagne (10574): Quantités de précipitations: 16.10.2017 02:00:00 - 22.10.2017 02:00:00 (CEST)
Date & Time tt [°C] td [°C] tt 5cm [°C] tt -5cm [°C] tt -20cm [°C] tt -100cm [°C] ff [km/h] ff [knt] fx [km/h] fx [knt] dd vv [km] sd [min] rr [mm]
22.10.2017 02:00:00 8,2 7,7 7,9 9,6 10,1 10,7 10 5 30 16 W 6 0 2,1
22.10.2017 01:00:00 9,1 8,1 8,7 10,1 10,1 10,7 16 9 49 26 W 5 0 2,7
22.10.2017 00:00:00 10,8 10,4 10,4 10,1 10,1 10,7 5 3 13 7 SW 4,0 0 0,0
21.10.2017 23:00:00 10,8 10,4 10,4 10,1 10,1 10,7 7 4 21 11 SW 4,8 0 0,0
21.10.2017 22:00:00 10,9 10,4 10,6 10,2 10,1 10,7 12 6 24 13 W 7 0 0,0
21.10.2017 21:00:00 10,7 10,2 10,4 10,2 10,1 10,7 8 4 21 11 WSW 9 0 1,3
21.10.2017 20:00:00 10,9 10,4 10,6 10,3 10,0 10,7 11 6 29 16 W 3,7 0 0,2
21.10.2017 19:00:00 10,4 10,0 10,3 10,3 10,0 10,7 12 6 25 13 WSW 8 0 0,5
21.10.2017 18:00:00 10,2 9,7 10,0 10,5 9,9 10,7 9 5 24 13 WSW 6 0 1,8
21.10.2017 17:00:00 10,4 9,3 10,2 10,7 9,8 10,7 15 8 29 16 WSW 4,9 0 0,0
21.10.2017 16:00:00 10,5 8,4 10,7 11,0 9,6 10,7 9 5 32 17 WSW 35 0 0,0
21.10.2017 15:00:00 10,7 7,8 11,2 11,2 9,4 10,7 10 6 25 13 WSW 42 0 0,0
21.10.2017 14:00:00 10,6 7,1 11,4 11,1 9,1 10,7 14 7 30 16 W 49 23 0,0
21.10.2017 13:00:00 10,8 6,3 12,4 10,3 9,0 10,7 12 7 36 19 W 40 54 0,0
21.10.2017 12:00:00 8,7 6,2 10,4 8,6 8,9 10,7 17 9 40 22 W 41 2 0,0
21.10.2017 11:00:00 7,4 5,3 7,8 7,8 8,9 10,7 13 7 27 14 W 46 0 0,0
21.10.2017 10:00:00 6,5 4,8 6,5 7,1 9,0 10,7 11 6 25 13 WSW 41 0 0,0
21.10.2017 09:00:00 6,0 4,6 5,7 6,6 9,1 10,7 14 7 28 15 WSW 37 0 0,0
21.10.2017 08:00:00 5,6 4,5 4,7 6,6 9,3 10,7 12 6 25 13 WSW 28 0 0,0
21.10.2017 07:00:00 5,7 4,5 5,0 6,7 9,4 10,7 13 7 21 12 W 28 0 0,0
21.10.2017 06:00:00 5,9 5,1 5,3 6,8 9,6 10,7 10 6 22 12 W 12 0 0,0
21.10.2017 05:00:00 5,8 4,8 5,0 6,8 9,8 10,7 11 6 23 12 W 20 0 0,0
21.10.2017 04:00:00 5,8 5,0 5,0 6,9 10,0 10,7 10 5 21 11 W 17 0 0,0
21.10.2017 03:00:00 5,7 4,8 4,9 7,1 10,2 10,7 9 5 22 12 W 20 0 0,0
21.10.2017 02:00:00 5,8 4,9 4,5 7,6 10,4 10,7 10 5 19 10 W 19 0 0,0
21.10.2017 01:00:00 6,4 5,6 4,4 8,5 10,6 10,7 9 5 32 17 W 14 0 0,0
21.10.2017 00:00:00 7,8 6,2 6,3 9,5 10,7 10,7 13 7 35 19 W 44 0 0,0
20.10.2017 23:00:00 9,4 8,3 8,6 10,1 10,8 10,7 21 12 41 22 W 23 0 0,7
20.10.2017 22:00:00 10,3 9,3 9,8 10,3 10,8 10,7 12 7 23 12 W 4,2 0 1,3
20.10.2017 21:00:00 11,2 8,7 10,6 10,4 10,9 10,7 12 6 28 15 WSW 11 0 0,0
20.10.2017 20:00:00 10,7 8,5 10,3 10,6 11,0 10,7 8 4 17 9 SW 11 0 0,0
20.10.2017 19:00:00 11,0 8,3 10,0 11,2 11,0 10,7 9 5 21 11 SW 16 0 0,0
20.10.2017 18:00:00 11,9 7,8 11,3 12,0 10,9 10,7 8 4 19 10 WSW 23 0 0,0
20.10.2017 17:00:00 13,1 7,9 12,7 12,7 10,7 10,7 6 4 17 9 SSW 33 1 0,0
20.10.2017 16:00:00 14,2 7,1 14,3 13,0 10,5 10,7 7 4 22 12 SW 43 4 0,0
20.10.2017 15:00:00 13,5 6,6 14,1 12,9 10,2 10,7 13 7 32 17 SW 37 4 0,0
20.10.2017 14:00:00 12,8 6,2 12,9 13,3 9,9 10,7 18 10 37 20 SW 42 15 0,0
20.10.2017 13:00:00 15,8 5,1 19,0 12,8 9,6 10,7 18 10 34 18 SSW 43 42 0,0
20.10.2017 12:00:00 14,2 4,0 15,1 11,1 9,4 10,7 14 7 29 15 SSW 52 23 0,0
20.10.2017 11:00:00 13,1 4,8 14,0 9,6 9,3 10,7 9 5 22 12 S 39 15 0,0
20.10.2017 10:00:00 11,8 4,0 11,9 8,3 9,4 10,7 11 6 22 12 S 42 2 0,0
20.10.2017 09:00:00 10,5 5,0 9,9 7,6 9,5 10,7 9 5 21 11 S 27 6 0,0
20.10.2017 08:00:00 10,0 6,3 8,8 7,4 9,6 10,7 10 5 22 12 S 18 0 0,0
20.10.2017 07:00:00 9,6 5,8 7,9 7,2 9,7 10,7 8 4 24 13 S 20 0 0,0
20.10.2017 06:00:00 9,4 4,6 7,7 7,4 9,9 10,7 9 5 22 12 S 28 0 0,0
20.10.2017 05:00:00 9,9 4,7 8,2 7,6 10,0 10,7 10 5 22 12 S 29 0 0,0
20.10.2017 04:00:00 9,6 5,0 8,0 7,9 10,2 10,7 11 6 26 14 S 26 0 0,0
20.10.2017 03:00:00 9,8 5,7 8,4 8,2 10,3 10,7 12 6 24 13 S 21 0 0,0
20.10.2017 02:00:00 10,1 5,7 8,4 8,5 10,4 10,7 11 6 24 13 S 23 0 0,0
20.10.2017 01:00:00 10,8 5,5 9,5 9,0 10,5 10,7 11 6 29 16 S 25 0 0,0
20.10.2017 00:00:00 11,2 6,8 9,8 9,4 10,7 10,7 11 6 23 12 S 17 0 0,0
19.10.2017 23:00:00 11,1 6,6 10,2 9,3 10,8 10,7 9 5 22 12 S 22 0 0,0
19.10.2017 22:00:00 10,9 5,6 9,0 9,4 11,0 10,7 8 4 26 14 S 30 0 0,0
19.10.2017 21:00:00 11,3 5,5 9,4 10,0 11,1 10,7 11 6 23 13 S 34 0 0,0
19.10.2017 20:00:00 11,6 7,0 9,7 10,6 11,2 10,7 10 6 25 14 S 25 0 0,0
19.10.2017 19:00:00 12,6 7,1 10,6 11,6 11,2 10,7 11 6 21 11 S 28 0 0,0
19.10.2017 18:00:00 13,4 7,7 11,0 12,6 11,0 10,7 10 5 20 11 SSW 37 47 0,0
19.10.2017 17:00:00 15,1 7,1 15,3 13,6 10,8 10,7 10 5 22 12 SSW 43 59 0,0
19.10.2017 16:00:00 16,0 5,4 17,2 14,4 10,4 10,7 13 7 26 14 SW 45 60 0,0
19.10.2017 15:00:00 16,4 6,6 18,7 14,6 9,9 10,7 11 6 23 12 SW 30 60 0,0
19.10.2017 14:00:00 16,8 5,3 19,4 14,2 9,4 10,7 11 6 25 13 S 36 60 0,0
19.10.2017 13:00:00 17,1 3,1 19,9 12,9 8,9 10,7 8 4 18 10 SSW 35 60 0,0
19.10.2017 12:00:00 16,2 4,5 18,8 11,1 8,7 10,7 9 5 15 8 SSW 37 60 0,0
19.10.2017 11:00:00 15,6 4,8 17,4 9,0 8,5 10,6 4 2 12 7 WSW 40 60 0,0
19.10.2017 10:00:00 11,6 8,3 11,9 6,6 8,6 10,6 4 2 6 4 W 34 60 0,0
19.10.2017 09:00:00 6,2 4,8 6,4 4,9 8,8 10,6 2 1 6 4 WSW 20 58 0,0
19.10.2017 08:00:00 4,6 3,5 1,3 4,7 9,1 10,6 5 3 6 4 W 24 0 0,0
19.10.2017 07:00:00 4,4 3,3 1,0 4,9 9,3 10,6 4 2 7 4 W 24 0 0,0
19.10.2017 06:00:00 4,7 3,2 0,9 5,2 9,6 10,6 5 3 6 3 W 30 0 0,0
19.10.2017 05:00:00 5,2 3,2 1,0 5,6 9,8 10,6 5 3 8 4 W 40 0 0,0
19.10.2017 04:00:00 5,3 3,2 1,1 6,0 10,1 10,6 5 3 10 5 W 39 0 0,0
19.10.2017 03:00:00 5,8 3,4 2,1 6,4 10,4 10,6 5 3 10 5 W 45 0 0,0
19.10.2017 02:00:00 5,7 4,0 2,2 6,9 10,7 10,6 6 3 13 7 W 27 0 0,0
19.10.2017 01:00:00 5,9 4,7 2,0 7,5 10,9 10,6 6 4 9 5 W 24 0 0,0
19.10.2017 00:00:00 7,1 5,6 2,8 8,2 11,2 10,6 6 3 12 6 WSW 22 0 0,0
18.10.2017 23:00:00 9,6 6,4 4,7 8,9 11,5 10,6 9 5 14 8 WSW 29 0 0,0
18.10.2017 22:00:00 10,1 8,4 7,7 9,5 11,7 10,6 9 5 16 8 WSW 15 0 0,0
18.10.2017 21:00:00 9,4 8,7 5,2 10,1 11,9 10,6 8 4 12 6 WSW 9 0 0,0
18.10.2017 20:00:00 9,0 7,9 4,2 11,3 12,0 10,6 4 2 7 4 WSW 17 0 0,0
18.10.2017 19:00:00 11,0 9,0 5,6 12,8 12,0 10,6 4 2 5 3 W 26 0 0,0
18.10.2017 18:00:00 14,0 9,9 10,4 14,2 11,8 10,6 2 1 7 4 WSW 30 21 0,0
18.10.2017 17:00:00 16,0 8,9 14,2 15,1 11,6 10,6 4 2 10 5 W 26 30 0,0
18.10.2017 16:00:00 17,1 6,1 17,1 15,6 11,1 10,6 5 3 18 10 WNW 43 60 0,0
18.10.2017 15:00:00 17,8 6,7 19,7 15,8 10,7 10,6 7 4 16 9 WNW 46 60 0,0
18.10.2017 14:00:00 18,2 7,1 21,8 15,4 10,2 10,6 5 3 16 9 W 48 60 0,0
18.10.2017 13:00:00 17,8 7,1 20,9 14,1 9,8 10,5 8 5 16 8 WSW 34 60 0,0
18.10.2017 12:00:00 17,2 7,4 20,0 12,2 9,5 10,5 8 4 15 8 WSW 38 60 0,0
18.10.2017 11:00:00 16,4 9,7 17,8 10,2 9,4 10,5 4 2 11 6 S 21 60 0,0
18.10.2017 10:00:00 13,0 9,7 14,3 8,0 9,5 10,5 3 1 8 4 SE 24 54 0,0
18.10.2017 09:00:00 7,8 7,0 7,2 6,7 9,6 10,5 6 3 9 5 SW 13 0 0,0
18.10.2017 08:00:00 6,7 5,8 3,9 6,5 9,8 10,5 3 2 7 4 S 8 0 0,0
18.10.2017 07:00:00 7,4 6,2 3,9 6,8 10,0 10,5 3 1 6 3 S 15 0 0,0
18.10.2017 06:00:00 7,8 6,7 3,9 6,9 10,2 10,5 2 1 4 2 S 17 0 0,0
18.10.2017 05:00:00 8,3 6,5 3,2 7,3 10,5 10,5 2 1 11 6 W 18 0 0,0
18.10.2017 04:00:00 11,5 6,2 5,2 7,8 10,7 10,5 8 5 13 7 SW 30 0 0,0
18.10.2017 03:00:00 9,2 6,3 4,6 8,3 10,9 10,5 5 3 15 8 SSW 24 0 0,0
18.10.2017 02:00:00 13,6 7,3 10,1 8,7 11,1 10,5 10 5 17 9 S 32 0 0,0
18.10.2017 01:00:00 13,5 6,5 8,5 9,0 11,3 10,5 9 5 17 9 SSW 31 0 0,0
18.10.2017 00:00:00 13,6 5,5 9,7 9,4 11,5 10,5 10 6 17 9 SSW 36 0 0,0
17.10.2017 23:00:00 13,9 6,7 10,6 9,8 11,7 10,4 10 5 16 9 S 35 0 0,0
17.10.2017 22:00:00 14,1 6,9 10,5 10,3 11,9 10,4 10 5 17 9 S 35 0 0,0
17.10.2017 21:00:00 14,6 7,6 11,1 10,9 12,1 10,4 10 5 21 11 SSW 35 0 0,0
17.10.2017 20:00:00 14,9 7,1 12,2 11,5 12,2 10,4 11 6 21 11 SSW 39 0 0,0
17.10.2017 19:00:00 13,5 6,6 7,7 12,6 12,2 10,4 6 3 13 7 SSW 45 0 0,0
17.10.2017 18:00:00 15,8 6,7 10,5 14,1 12,1 10,4 4 2 12 6 SW 51 57 0,0
17.10.2017 17:00:00 18,8 6,0 18,7 15,3 11,8 10,4 9 5 16 9 SSW 32 60 0,0
17.10.2017 16:00:00 19,8 6,5 20,9 16,0 11,4 10,4 10 5 21 12 SW 34 60 0,0
17.10.2017 15:00:00 20,3 7,6 22,0 16,2 11,0 10,4 11 6 24 13 SW 35 60 0,0
17.10.2017 14:00:00 20,6 6,0 22,5 15,7 10,5 10,4 10 5 21 11 SW 33 60 0,0
17.10.2017 13:00:00 20,1 4,6 22,0 14,5 10,1 10,4 10 5 23 12 WSW 34 60 0,0
17.10.2017 12:00:00 19,0 6,2 21,5 12,9 9,8 10,4 10 5 20 11 SW 28 60 0,0
17.10.2017 11:00:00 17,7 7,6 19,2 11,0 9,7 10,4 10 5 21 11 SW 35 60 0,0
17.10.2017 10:00:00 15,8 7,5 16,6 9,1 9,8 10,4 9 5 22 12 SW 39 60 0,0
17.10.2017 09:00:00 12,7 6,0 12,8 7,7 9,9 10,4 7 4 16 8 WSW 40 47 0,0
17.10.2017 08:00:00 10,8 5,8 5,3 7,6 10,1 10,3 8 4 16 9 WSW 39 0 0,0
17.10.2017 07:00:00 11,3 6,0 6,7 7,9 10,2 10,3 6 3 13 7 WSW 37 0 0,0
17.10.2017 06:00:00 11,3 6,7 6,1 8,3 10,4 10,3 8 4 15 8 WSW 37 0 0,0
17.10.2017 05:00:00 12,1 6,5 8,8 8,7 10,5 10,3 8 4 17 9 WSW 37 0 0,0
17.10.2017 04:00:00 12,9 7,4 10,5 9,0 10,6 10,3 10 6 22 12 SW 36 0 0,0
17.10.2017 03:00:00 12,9 8,6 11,0 9,1 10,8 10,3 11 6 23 12 SW 28 0 0,0
17.10.2017 02:00:00 12,6 8,8 10,4 9,2 10,9 10,3 11 6 22 12 SW 25 0 0,0
17.10.2017 01:00:00 12,2 6,4 9,0 9,5 11,1 10,3 10 5 17 9 SW 41 0 0,0
17.10.2017 00:00:00 12,7 9,1 10,8 9,8 11,3 10,3 11 6 19 11 SW 25 0 0,0
16.10.2017 23:00:00 12,8 8,9 10,4 10,0 11,5 10,3 10 6 17 9 WSW 30 0 0,0
16.10.2017 22:00:00 12,0 8,0 8,2 10,3 11,7 10,3 6 3 14 8 WSW 33 0 0,0
16.10.2017 21:00:00 11,7 8,1 7,9 10,9 11,8 10,3 8 4 14 8 WSW 34 0 0,0
16.10.2017 20:00:00 13,0 8,3 10,8 11,8 11,9 10,3 11 6 19 10 W 34 0 0,0
16.10.2017 19:00:00 13,3 8,4 9,5 12,7 11,9 10,3 7 4 12 7 WSW 35 0 0,0
16.10.2017 18:00:00 15,3 7,9 11,4 14,0 11,8 10,3 7 4 22 12 WSW 44 36 0,0
16.10.2017 17:00:00 17,3 8,5 16,9 15,0 11,5 10,3 10 6 20 11 WSW 37 60 0,0
16.10.2017 16:00:00 18,6 8,3 20,5 15,6 11,1 10,3 8 5 24 13 W 39 60 0,0
16.10.2017 15:00:00 19,5 8,6 21,5 15,7 10,7 10,3 8 5 24 13 W 43 60 0,0
16.10.2017 14:00:00 18,9 7,3 21,0 15,2 10,2 10,2 11 6 26 14 W 30 60 0,0
16.10.2017 13:00:00 17,7 8,7 20,4 14,0 9,9 10,2 12 7 32 17 W 25 60 0,0
16.10.2017 12:00:00 15,9 8,8 17,9 12,6 9,6 10,2 15 8 33 18 WSW 28 60 0,0
16.10.2017 11:00:00 14,7 10,2 16,2 11,1 9,5 10,2 16 9 31 17 WSW 18 60 0,0
16.10.2017 10:00:00 13,7 10,5 14,8 9,4 9,4 10,2 11 6 21 12 SW 14 60 0,0
16.10.2017 09:00:00 11,8 9,9 11,1 8,0 9,5 10,2 13 7 23 12 SW 8 60 0,0
16.10.2017 08:00:00 10,6 9,6 9,2 7,6 9,7 10,2 14 8 25 14 SW 5 1 0,0
16.10.2017 07:00:00 10,2 9,3 8,7 7,7 9,8 10,2 9 5 21 11 SW 6 0 0,0
16.10.2017 06:00:00 10,6 9,5 8,9 7,8 10,0 10,2 10 5 25 14 SW 7 0 0,0
16.10.2017 05:00:00 10,4 9,3 8,0 7,9 10,1 10,2 5 3 18 10 WSW 14 0 0,0
16.10.2017 04:00:00 10,4 9,1 7,0 8,3 10,3 10,2 3 1 21 11 S 13 0 0,0
16.10.2017 03:00:00 10,9 8,9 7,7 8,6 10,4 10,2 6 4 21 11 SW 26 0 0,0
16.10.2017 02:00:00 12,1 8,7 10,3 8,8 10,6 10,2 10 5 26 14 SW 40 0 0,0

tt = Température de l'air
td = dewpoint
tt 5cm = Température de l'air 5cm
tt -5cm = Température de l'air -5cm
tt -20cm = Température de l'air -20cm
tt -100cm = Température de l'air -100cm
ff = Vitesse du vent
fx = gusts
dd = Direction du vent
vv = visibility
sd = Ensoleillement
rr = Quantités de précipitations

stations d'obs. à proximité